createdAt,value
2019-01-25T00:00:09.846Z,1008.34
2019-01-25T00:01:09.830Z,1008.38
2019-01-25T00:02:09.863Z,1008.36
2019-01-25T00:03:10.528Z,1008.38
2019-01-25T00:04:09.809Z,1008.40
2019-01-25T00:05:09.799Z,1008.39
2019-01-25T00:06:09.790Z,1008.38
2019-01-25T00:07:09.778Z,1008.38
2019-01-25T00:08:09.763Z,1008.38
2019-01-25T00:09:09.748Z,1008.35
2019-01-25T00:10:09.738Z,1008.35
2019-01-25T00:11:09.731Z,1008.34
2019-01-25T00:12:09.748Z,1008.31
2019-01-25T00:13:09.712Z,1008.36
2019-01-25T00:14:09.716Z,1008.34
2019-01-25T00:15:09.689Z,1008.35
2019-01-25T00:16:09.677Z,1008.39
2019-01-25T00:17:09.708Z,1008.36
2019-01-25T00:18:09.658Z,1008.36
2019-01-25T00:19:09.662Z,1008.42
2019-01-25T00:20:09.769Z,1008.38
2019-01-25T00:21:09.631Z,1008.41
2019-01-25T00:22:09.610Z,1008.40
2019-01-25T00:23:09.628Z,1008.44
2019-01-25T00:24:09.592Z,1008.42
2019-01-25T00:25:09.591Z,1008.45
2019-01-25T00:26:09.616Z,1008.43
2019-01-25T00:27:09.561Z,1008.44
2019-01-25T00:28:09.554Z,1008.43
2019-01-25T00:29:09.550Z,1008.47
2019-01-25T00:30:09.527Z,1008.44
2019-01-25T00:31:09.532Z,1008.42
2019-01-25T00:32:09.506Z,1008.41
2019-01-25T00:33:09.501Z,1008.45
2019-01-25T00:34:09.491Z,1008.42
2019-01-25T00:35:09.499Z,1008.42
2019-01-25T00:36:09.466Z,1008.38
2019-01-25T00:37:09.467Z,1008.39
2019-01-25T00:38:09.443Z,1008.41
2019-01-25T00:39:09.433Z,1008.44
2019-01-25T00:40:09.426Z,1008.43
2019-01-25T00:41:09.418Z,1008.42
2019-01-25T00:42:09.400Z,1008.42
2019-01-25T00:43:09.410Z,1008.46
2019-01-25T00:44:09.387Z,1008.46
2019-01-25T00:45:09.373Z,1008.50
2019-01-25T00:46:09.440Z,1008.52
2019-01-25T00:47:09.354Z,1008.49
2019-01-25T00:48:09.353Z,1008.52
2019-01-25T00:49:09.332Z,1008.50
2019-01-25T00:50:09.324Z,1008.48
2019-01-25T00:51:09.304Z,1008.52
2019-01-25T00:52:09.302Z,1008.52
2019-01-25T00:53:09.296Z,1008.56
2019-01-25T00:54:09.284Z,1008.52
2019-01-25T00:55:09.265Z,1008.57
2019-01-25T00:56:09.260Z,1008.58
2019-01-25T00:57:09.247Z,1008.51
2019-01-25T00:58:09.242Z,1008.51
2019-01-25T00:59:09.230Z,1008.56
2019-01-25T01:00:09.218Z,1008.49
2019-01-25T01:01:09.208Z,1008.49
2019-01-25T01:02:09.196Z,1008.49
2019-01-25T01:03:09.186Z,1008.49
2019-01-25T01:04:09.187Z,1008.45
2019-01-25T01:05:09.170Z,1008.46
2019-01-25T01:06:09.161Z,1008.48
2019-01-25T01:07:09.142Z,1008.49
2019-01-25T01:08:09.131Z,1008.50
2019-01-25T01:09:09.147Z,1008.51
2019-01-25T01:10:13.982Z,1008.56
2019-01-25T01:11:10.104Z,1008.46
2019-01-25T01:12:09.088Z,1008.56
2019-01-25T01:13:09.082Z,1008.49
2019-01-25T01:14:09.066Z,1008.51
2019-01-25T01:15:09.071Z,1008.53
2019-01-25T01:16:09.054Z,1008.50
2019-01-25T01:17:09.037Z,1008.53
2019-01-25T01:18:09.026Z,1008.53
2019-01-25T01:19:09.020Z,1008.56
2019-01-25T01:20:09.019Z,1008.53
2019-01-25T01:21:09.014Z,1008.50
2019-01-25T01:22:09.004Z,1008.56
2019-01-25T01:23:08.991Z,1008.55
2019-01-25T01:24:08.985Z,1008.61
2019-01-25T01:25:08.963Z,1008.56
2019-01-25T01:26:08.941Z,1008.58
2019-01-25T01:27:08.956Z,1008.62
2019-01-25T01:28:08.931Z,1008.63
2019-01-25T01:29:08.923Z,1008.58
2019-01-25T01:30:08.903Z,1008.59
2019-01-25T01:31:08.948Z,1008.55
2019-01-25T01:32:08.886Z,1008.57
2019-01-25T01:33:08.871Z,1008.58
2019-01-25T01:34:08.888Z,1008.57
2019-01-25T01:35:08.868Z,1008.59
2019-01-25T01:36:08.840Z,1008.56
2019-01-25T01:37:08.827Z,1008.57
2019-01-25T01:38:08.830Z,1008.56
2019-01-25T01:39:08.812Z,1008.56
2019-01-25T01:40:08.808Z,1008.56
2019-01-25T01:41:08.788Z,1008.57
2019-01-25T01:42:08.777Z,1008.60
2019-01-25T01:43:08.769Z,1008.58
2019-01-25T01:44:08.755Z,1008.55
2019-01-25T01:45:08.749Z,1008.61
2019-01-25T01:46:08.769Z,1008.59
2019-01-25T01:47:08.726Z,1008.64
2019-01-25T01:48:08.707Z,1008.63
2019-01-25T01:49:08.746Z,1008.59
2019-01-25T01:50:08.701Z,1008.56
2019-01-25T01:51:08.689Z,1008.59
2019-01-25T01:52:08.685Z,1008.62
2019-01-25T01:53:08.661Z,1008.60
2019-01-25T01:54:08.657Z,1008.64
2019-01-25T01:55:08.639Z,1008.60
2019-01-25T01:56:08.631Z,1008.57
2019-01-25T01:57:08.627Z,1008.60
2019-01-25T01:58:08.605Z,1008.57
2019-01-25T01:59:08.605Z,1008.57
2019-01-25T02:00:08.590Z,1008.57
2019-01-25T02:01:08.590Z,1008.59
2019-01-25T02:02:08.567Z,1008.57
2019-01-25T02:03:08.563Z,1008.61
2019-01-25T02:04:08.543Z,1008.61
2019-01-25T02:05:08.531Z,1008.65
2019-01-25T02:06:08.529Z,1008.53
2019-01-25T02:07:08.528Z,1008.60
2019-01-25T02:08:08.505Z,1008.61
2019-01-25T02:09:08.506Z,1008.57
2019-01-25T02:10:08.483Z,1008.57
2019-01-25T02:11:08.466Z,1008.59
2019-01-25T02:12:08.470Z,1008.59
2019-01-25T02:13:08.472Z,1008.55
2019-01-25T02:14:08.443Z,1008.58
2019-01-25T02:15:08.442Z,1008.56
2019-01-25T02:16:08.419Z,1008.54
2019-01-25T02:17:08.408Z,1008.55
2019-01-25T02:18:08.398Z,1008.58
2019-01-25T02:19:08.396Z,1008.56
2019-01-25T02:20:08.383Z,1008.54
2019-01-25T02:21:08.394Z,1008.55
2019-01-25T02:22:08.357Z,1008.54
2019-01-25T02:23:08.345Z,1008.54
2019-01-25T02:24:08.349Z,1008.54
2019-01-25T02:25:08.327Z,1008.49
2019-01-25T02:26:08.316Z,1008.48
2019-01-25T02:27:08.303Z,1008.43
2019-01-25T02:28:08.298Z,1008.45
2019-01-25T02:29:08.285Z,1008.44
2019-01-25T02:30:08.287Z,1008.42
2019-01-25T02:31:08.265Z,1008.43
2019-01-25T02:32:08.253Z,1008.43
2019-01-25T02:33:08.245Z,1008.42
2019-01-25T02:34:08.240Z,1008.42
2019-01-25T02:35:08.221Z,1008.39
2019-01-25T02:36:08.216Z,1008.42
2019-01-25T02:37:08.201Z,1008.38
2019-01-25T02:38:08.191Z,1008.37
2019-01-25T02:39:08.180Z,1008.35
2019-01-25T02:40:08.169Z,1008.39
2019-01-25T02:41:08.160Z,1008.38
2019-01-25T02:42:08.163Z,1008.34
2019-01-25T02:43:08.156Z,1008.37
2019-01-25T02:44:08.121Z,1008.45
2019-01-25T02:45:08.111Z,1008.36
2019-01-25T02:46:08.120Z,1008.38
2019-01-25T02:47:08.115Z,1008.32
2019-01-25T02:48:08.095Z,1008.34
2019-01-25T02:49:08.121Z,1008.31
2019-01-25T02:50:08.077Z,1008.28
2019-01-25T02:51:08.095Z,1008.29
2019-01-25T02:52:08.041Z,1008.31
2019-01-25T02:53:08.035Z,1008.34
2019-01-25T02:54:08.026Z,1008.35
2019-01-25T02:55:08.032Z,1008.35
2019-01-25T02:56:08.002Z,1008.31
2019-01-25T02:57:07.994Z,1008.32
2019-01-25T02:58:07.990Z,1008.32
2019-01-25T02:59:07.969Z,1008.35
2019-01-25T03:00:07.958Z,1008.39
2019-01-25T03:01:07.966Z,1008.35
2019-01-25T03:02:07.937Z,1008.38
2019-01-25T03:03:07.930Z,1008.36
2019-01-25T03:04:07.924Z,1008.40
2019-01-25T03:05:07.918Z,1008.38
2019-01-25T03:06:07.901Z,1008.34
2019-01-25T03:07:07.899Z,1008.31
2019-01-25T03:08:07.877Z,1008.33
2019-01-25T03:09:07.867Z,1008.39
2019-01-25T03:10:07.878Z,1008.31
2019-01-25T03:11:07.847Z,1008.29
2019-01-25T03:12:07.844Z,1008.29
2019-01-25T03:13:07.835Z,1008.29
2019-01-25T03:14:07.815Z,1008.31
2019-01-25T03:15:07.805Z,1008.31
2019-01-25T03:16:07.818Z,1008.33
2019-01-25T03:17:07.786Z,1008.38
2019-01-25T03:18:07.787Z,1008.35
2019-01-25T03:19:07.766Z,1008.32
2019-01-25T03:20:07.756Z,1008.30
2019-01-25T03:21:07.745Z,1008.34
2019-01-25T03:22:07.737Z,1008.26
2019-01-25T03:23:07.730Z,1008.30
2019-01-25T03:24:07.781Z,1008.28
2019-01-25T03:25:07.697Z,1008.25
2019-01-25T03:26:07.685Z,1008.28
2019-01-25T03:27:07.681Z,1008.33
2019-01-25T03:28:07.689Z,1008.34
2019-01-25T03:29:07.663Z,1008.35
2019-01-25T03:30:07.660Z,1008.32
2019-01-25T03:31:07.648Z,1008.40
2019-01-25T03:32:07.631Z,1008.34
2019-01-25T03:33:07.639Z,1008.40
2019-01-25T03:34:07.629Z,1008.40
2019-01-25T03:35:07.603Z,1008.35
2019-01-25T03:36:07.594Z,1008.42
2019-01-25T03:37:07.575Z,1008.40
2019-01-25T03:38:07.573Z,1008.40
2019-01-25T03:39:07.559Z,1008.43
2019-01-25T03:40:07.557Z,1008.46
2019-01-25T03:41:07.543Z,1008.39
2019-01-25T03:42:07.535Z,1008.39
2019-01-25T03:43:07.518Z,1008.44
2019-01-25T03:44:07.501Z,1008.44
2019-01-25T03:45:07.498Z,1008.49
2019-01-25T03:46:07.485Z,1008.46
2019-01-25T03:47:07.479Z,1008.47
2019-01-25T03:48:07.463Z,1008.43
2019-01-25T03:49:07.474Z,1008.45
2019-01-25T03:50:07.454Z,1008.49
2019-01-25T03:51:07.431Z,1008.48
2019-01-25T03:52:07.423Z,1008.50
2019-01-25T03:53:07.418Z,1008.54
2019-01-25T03:54:07.399Z,1008.50
2019-01-25T03:55:07.395Z,1008.54
2019-01-25T03:56:07.398Z,1008.50
2019-01-25T03:57:07.377Z,1008.57
2019-01-25T03:58:07.364Z,1008.49
2019-01-25T03:59:07.358Z,1008.51
2019-01-25T04:00:07.333Z,1008.53
2019-01-25T04:01:07.333Z,1008.55
2019-01-25T04:02:07.317Z,1008.61
2019-01-25T04:03:07.322Z,1008.58
2019-01-25T04:04:07.300Z,1008.53
2019-01-25T04:05:07.289Z,1008.49
2019-01-25T04:06:07.275Z,1008.54
2019-01-25T04:07:07.265Z,1008.54
2019-01-25T04:08:07.254Z,1008.56
2019-01-25T04:09:07.245Z,1008.59
2019-01-25T04:10:07.241Z,1008.55
2019-01-25T04:11:07.221Z,1008.58
2019-01-25T04:12:07.213Z,1008.59
2019-01-25T04:13:07.202Z,1008.54
2019-01-25T04:14:07.187Z,1008.51
2019-01-25T04:15:07.184Z,1008.54
2019-01-25T04:16:07.188Z,1008.56
2019-01-25T04:17:07.157Z,1008.57
2019-01-25T04:18:07.149Z,1008.56
2019-01-25T04:19:07.158Z,1008.52
2019-01-25T04:20:07.134Z,1008.55
2019-01-25T04:21:07.121Z,1008.55
2019-01-25T04:22:07.119Z,1008.54
2019-01-25T04:23:07.095Z,1008.53
2019-01-25T04:24:07.273Z,1008.58
2019-01-25T04:25:07.083Z,1008.60
2019-01-25T04:26:07.077Z,1008.54
2019-01-25T04:27:07.146Z,1008.51
2019-01-25T04:28:07.051Z,1008.54
2019-01-25T04:29:07.040Z,1008.55
2019-01-25T04:30:07.021Z,1008.51
2019-01-25T04:31:07.014Z,1008.57
2019-01-25T04:32:06.999Z,1008.57
2019-01-25T04:33:07.016Z,1008.62
2019-01-25T04:34:06.976Z,1008.62
2019-01-25T04:35:06.972Z,1008.60
2019-01-25T04:36:06.961Z,1008.61
2019-01-25T04:37:06.947Z,1008.58
2019-01-25T04:38:06.957Z,1008.59
2019-01-25T04:39:06.961Z,1008.57
2019-01-25T04:40:06.919Z,1008.59
2019-01-25T04:41:11.800Z,1008.62
2019-01-25T04:42:07.895Z,1008.54
2019-01-25T04:43:06.885Z,1008.57
2019-01-25T04:44:06.885Z,1008.58
2019-01-25T04:45:06.897Z,1008.55
2019-01-25T04:46:06.856Z,1008.54
2019-01-25T04:47:06.848Z,1008.57
2019-01-25T04:48:06.836Z,1008.51
2019-01-25T04:49:06.853Z,1008.49
2019-01-25T04:50:06.821Z,1008.52
2019-01-25T04:51:06.831Z,1008.48
2019-01-25T04:52:06.792Z,1008.50
2019-01-25T04:53:06.790Z,1008.49
2019-01-25T04:54:06.775Z,1008.52
2019-01-25T04:55:06.763Z,1008.54
2019-01-25T04:56:06.759Z,1008.56
2019-01-25T04:57:06.739Z,1008.55
2019-01-25T04:58:06.748Z,1008.57
2019-01-25T04:59:06.724Z,1008.61
2019-01-25T05:00:06.719Z,1008.59
2019-01-25T05:01:06.695Z,1008.55
2019-01-25T05:02:06.694Z,1008.57
2019-01-25T05:03:06.684Z,1008.57
2019-01-25T05:04:06.668Z,1008.57
2019-01-25T05:05:06.672Z,1008.59
2019-01-25T05:06:06.656Z,1008.60
2019-01-25T05:07:06.657Z,1008.66
2019-01-25T05:08:06.629Z,1008.58
2019-01-25T05:09:06.632Z,1008.55
2019-01-25T05:10:06.607Z,1008.61
2019-01-25T05:11:06.597Z,1008.60
2019-01-25T05:12:06.591Z,1008.60
2019-01-25T05:13:06.575Z,1008.67
2019-01-25T05:14:06.582Z,1008.70
2019-01-25T05:15:06.568Z,1008.68
2019-01-25T05:16:06.575Z,1008.72
2019-01-25T05:17:06.536Z,1008.77
2019-01-25T05:18:06.542Z,1008.71
2019-01-25T05:19:06.513Z,1008.73
2019-01-25T05:20:06.507Z,1008.73
2019-01-25T05:21:06.497Z,1008.72
2019-01-25T05:22:06.479Z,1008.75
2019-01-25T05:23:06.477Z,1008.70
2019-01-25T05:24:06.457Z,1008.69
2019-01-25T05:25:06.456Z,1008.74
2019-01-25T05:26:06.432Z,1008.74
2019-01-25T05:27:06.442Z,1008.74
2019-01-25T05:28:06.415Z,1008.77
2019-01-25T05:29:06.414Z,1008.76
2019-01-25T05:30:06.401Z,1008.74
2019-01-25T05:31:06.402Z,1008.71
2019-01-25T05:32:06.394Z,1008.67
2019-01-25T05:33:06.379Z,1008.68
2019-01-25T05:34:06.353Z,1008.66
2019-01-25T05:35:06.351Z,1008.65
2019-01-25T05:36:06.330Z,1008.66
2019-01-25T05:37:06.330Z,1008.65
2019-01-25T05:38:06.309Z,1008.60
2019-01-25T05:39:06.311Z,1008.64
2019-01-25T05:40:06.292Z,1008.59
2019-01-25T05:41:06.289Z,1008.55
2019-01-25T05:42:06.275Z,1008.57
2019-01-25T05:43:06.266Z,1008.55
2019-01-25T05:44:06.253Z,1008.51
2019-01-25T05:45:06.252Z,1008.51
2019-01-25T05:46:06.228Z,1008.56
2019-01-25T05:47:06.218Z,1008.56
2019-01-25T05:48:06.212Z,1008.48
2019-01-25T05:49:06.222Z,1008.53
2019-01-25T05:50:06.193Z,1008.49
2019-01-25T05:51:06.181Z,1008.60
2019-01-25T05:52:06.166Z,1008.53
2019-01-25T05:53:06.157Z,1008.54
2019-01-25T05:54:06.148Z,1008.60
2019-01-25T05:55:06.312Z,1008.55
2019-01-25T05:56:06.130Z,1008.59
2019-01-25T05:57:06.117Z,1008.58
2019-01-25T05:58:06.100Z,1008.58
2019-01-25T05:59:06.096Z,1008.57
2019-01-25T06:00:06.103Z,1008.58
2019-01-25T06:01:06.143Z,1008.54
2019-01-25T06:02:06.075Z,1008.55
2019-01-25T06:03:06.063Z,1008.56
2019-01-25T06:04:06.063Z,1008.59
2019-01-25T06:05:06.031Z,1008.55
2019-01-25T06:06:06.030Z,1008.55
2019-01-25T06:07:06.018Z,1008.56
2019-01-25T06:08:06.006Z,1008.64
2019-01-25T06:09:05.998Z,1008.56
2019-01-25T06:10:05.982Z,1008.58
2019-01-25T06:11:05.971Z,1008.57
2019-01-25T06:12:05.971Z,1008.55
2019-01-25T06:13:05.960Z,1008.52
2019-01-25T06:14:05.934Z,1008.54
2019-01-25T06:15:05.928Z,1008.48
2019-01-25T06:16:05.921Z,1008.52
2019-01-25T06:17:05.917Z,1008.54
2019-01-25T06:18:05.897Z,1008.48
2019-01-25T06:19:05.896Z,1008.58
2019-01-25T06:20:05.870Z,1008.57
2019-01-25T06:21:05.868Z,1008.57
2019-01-25T06:22:05.855Z,1008.61
2019-01-25T06:23:05.856Z,1008.57
2019-01-25T06:24:05.838Z,1008.56
2019-01-25T06:25:05.838Z,1008.57
2019-01-25T06:26:05.809Z,1008.58
2019-01-25T06:27:05.806Z,1008.60
2019-01-25T06:28:05.791Z,1008.65
2019-01-25T06:29:05.784Z,1008.64
2019-01-25T06:30:05.771Z,1008.64
2019-01-25T06:31:05.769Z,1008.61
2019-01-25T06:32:05.749Z,1008.64
2019-01-25T06:33:05.753Z,1008.66
2019-01-25T06:34:05.734Z,1008.65
2019-01-25T06:35:05.723Z,1008.68
2019-01-25T06:36:05.708Z,1008.71
2019-01-25T06:37:05.705Z,1008.76
2019-01-25T06:38:05.683Z,1008.76
2019-01-25T06:39:05.682Z,1008.80
2019-01-25T06:40:05.665Z,1008.78
2019-01-25T06:41:05.651Z,1008.76
2019-01-25T06:42:05.640Z,1008.83
2019-01-25T06:43:05.737Z,1008.79
2019-01-25T06:44:05.623Z,1008.81
2019-01-25T06:45:05.621Z,1008.81
2019-01-25T06:46:05.621Z,1008.83
2019-01-25T06:47:05.597Z,1008.83
2019-01-25T06:48:05.590Z,1008.85
2019-01-25T06:49:05.574Z,1008.85
2019-01-25T06:50:05.566Z,1008.88
2019-01-25T06:51:05.558Z,1008.85
2019-01-25T06:52:05.980Z,1008.93
2019-01-25T06:53:05.530Z,1008.86
2019-01-25T06:54:05.523Z,1008.89
2019-01-25T06:55:05.517Z,1008.87
2019-01-25T06:56:05.509Z,1008.84
2019-01-25T06:57:05.487Z,1008.90
2019-01-25T06:58:05.482Z,1008.89
2019-01-25T06:59:05.472Z,1008.85
2019-01-25T07:00:05.457Z,1008.87
2019-01-25T07:01:05.451Z,1008.85
2019-01-25T07:02:05.437Z,1008.90
2019-01-25T07:03:05.431Z,1008.91
2019-01-25T07:04:05.443Z,1008.95
2019-01-25T07:05:05.405Z,1008.98
2019-01-25T07:06:05.391Z,1008.98
2019-01-25T07:07:05.489Z,1008.98
2019-01-25T07:08:05.375Z,1009.04
2019-01-25T07:09:05.373Z,1009.03
2019-01-25T07:10:05.354Z,1009.03
2019-01-25T07:11:05.383Z,1009.03
2019-01-25T07:12:05.331Z,1009.05
2019-01-25T07:13:05.411Z,1009.05
2019-01-25T07:14:05.325Z,1009.04
2019-01-25T07:15:05.312Z,1009.03
2019-01-25T07:16:05.310Z,1009.02
2019-01-25T07:17:05.278Z,1009.06
2019-01-25T07:18:05.268Z,1009.08
2019-01-25T07:19:05.268Z,1009.08
2019-01-25T07:20:05.258Z,1009.03
2019-01-25T07:21:05.249Z,1009.01
2019-01-25T07:22:05.230Z,1009.02
2019-01-25T07:23:05.220Z,1009.00
2019-01-25T07:24:05.210Z,1009.01
2019-01-25T07:25:05.215Z,1009.05
2019-01-25T07:26:05.198Z,1009.09
2019-01-25T07:27:05.187Z,1009.07
2019-01-25T07:28:05.167Z,1009.05
2019-01-25T07:29:05.159Z,1009.02
2019-01-25T07:30:05.147Z,1009.03
2019-01-25T07:31:05.183Z,1008.99
2019-01-25T07:32:05.202Z,1009.09
2019-01-25T07:33:05.171Z,1009.10
2019-01-25T07:34:05.118Z,1009.04
2019-01-25T07:35:05.090Z,1009.07
2019-01-25T07:36:05.113Z,1009.05
2019-01-25T07:37:05.081Z,1009.03
2019-01-25T07:38:05.174Z,1009.08
2019-01-25T07:39:05.088Z,1009.04
2019-01-25T07:40:05.049Z,1009.00
2019-01-25T07:41:05.059Z,1009.04
2019-01-25T07:42:05.043Z,1009.03
2019-01-25T07:43:05.035Z,1009.01
2019-01-25T07:44:05.008Z,1008.99
2019-01-25T07:45:05.007Z,1009.02
2019-01-25T07:46:05.013Z,1009.06
2019-01-25T07:47:04.968Z,1009.08
2019-01-25T07:48:04.968Z,1009.06
2019-01-25T07:49:05.033Z,1009.05
2019-01-25T07:50:04.961Z,1009.06
2019-01-25T07:51:04.933Z,1009.08
2019-01-25T07:52:04.995Z,1009.13
2019-01-25T07:53:04.908Z,1009.10
2019-01-25T07:54:05.062Z,1009.16
2019-01-25T07:55:04.921Z,1009.13
2019-01-25T07:56:04.909Z,1009.17
2019-01-25T07:57:04.937Z,1009.13
2019-01-25T07:58:04.862Z,1009.10
2019-01-25T07:59:04.885Z,1009.05
2019-01-25T08:00:04.856Z,1009.05
2019-01-25T08:01:04.834Z,1009.11
2019-01-25T08:02:04.963Z,1009.05
2019-01-25T08:03:04.838Z,1009.13
2019-01-25T08:04:04.832Z,1009.11
2019-01-25T08:05:04.778Z,1009.08
2019-01-25T08:06:04.792Z,1009.06
2019-01-25T08:07:04.869Z,1009.12
2019-01-25T08:08:04.748Z,1009.11
2019-01-25T08:09:04.750Z,1009.15
2019-01-25T08:10:04.739Z,1009.07
2019-01-25T08:11:04.729Z,1009.04
2019-01-25T08:12:07.555Z,1009.11
2019-01-25T08:13:04.704Z,1009.07
2019-01-25T08:14:04.767Z,1009.09
2019-01-25T08:15:04.741Z,1009.08
2019-01-25T08:16:04.733Z,1009.09
2019-01-25T08:17:04.660Z,1009.06
2019-01-25T08:18:04.731Z,1009.07
2019-01-25T08:19:04.658Z,1009.08
2019-01-25T08:20:04.634Z,1009.07
2019-01-25T08:21:04.616Z,1009.09
2019-01-25T08:22:04.653Z,1009.13
2019-01-25T08:23:04.617Z,1009.13
2019-01-25T08:24:04.590Z,1009.07
2019-01-25T08:25:04.591Z,1009.07
2019-01-25T08:26:04.693Z,1009.09
2019-01-25T08:27:04.564Z,1009.13
2019-01-25T08:28:04.550Z,1009.11
2019-01-25T08:29:04.592Z,1009.11
2019-01-25T08:30:04.528Z,1009.11
2019-01-25T08:31:04.529Z,1009.09
2019-01-25T08:32:04.541Z,1009.08
2019-01-25T08:33:04.498Z,1009.11
2019-01-25T08:34:04.565Z,1009.08
2019-01-25T08:35:04.480Z,1009.10
2019-01-25T08:36:04.521Z,1009.04
2019-01-25T08:37:04.552Z,1009.04
2019-01-25T08:38:06.353Z,1009.02
2019-01-25T08:39:04.438Z,1008.95
2019-01-25T08:40:04.420Z,1008.97
2019-01-25T08:41:04.429Z,1009.01
2019-01-25T08:42:04.401Z,1009.02
2019-01-25T08:43:04.392Z,1009.05
2019-01-25T08:44:04.392Z,1009.07
2019-01-25T08:45:04.388Z,1009.08
2019-01-25T08:46:04.362Z,1009.10
2019-01-25T08:47:04.346Z,1009.07
2019-01-25T08:48:04.340Z,1008.98
2019-01-25T08:49:04.382Z,1009.03
2019-01-25T08:50:04.397Z,1008.97
2019-01-25T08:51:04.362Z,1008.94
2019-01-25T08:52:04.306Z,1008.97
2019-01-25T08:53:04.310Z,1008.95
2019-01-25T08:54:04.277Z,1008.93
2019-01-25T08:55:04.316Z,1008.92
2019-01-25T08:56:04.293Z,1008.99
2019-01-25T08:57:04.431Z,1008.97
2019-01-25T08:58:04.267Z,1008.99
2019-01-25T08:59:04.249Z,1008.99
2019-01-25T09:00:04.219Z,1009.00
2019-01-25T09:01:04.211Z,1008.99
2019-01-25T09:02:04.196Z,1009.03
2019-01-25T09:03:04.181Z,1009.03
2019-01-25T09:04:04.163Z,1009.02
2019-01-25T09:05:04.154Z,1009.04
2019-01-25T09:06:04.145Z,1009.02
2019-01-25T09:07:04.142Z,1009.08
2019-01-25T09:08:04.133Z,1009.02
2019-01-25T09:09:04.126Z,1009.05
2019-01-25T09:10:04.108Z,1009.00
2019-01-25T09:11:04.099Z,1009.05
2019-01-25T09:12:04.082Z,1009.06
2019-01-25T09:13:04.071Z,1009.08
2019-01-25T09:14:04.072Z,1009.06
2019-01-25T09:15:04.054Z,1009.13
2019-01-25T09:16:04.048Z,1009.09
2019-01-25T09:17:04.043Z,1009.05
2019-01-25T09:18:04.026Z,1009.17
2019-01-25T09:19:04.012Z,1009.18
2019-01-25T09:20:04.012Z,1009.25
2019-01-25T09:21:04.005Z,1009.07
2019-01-25T09:22:03.979Z,1009.02
2019-01-25T09:23:03.971Z,1009.08
2019-01-25T09:24:03.959Z,1009.07
2019-01-25T09:25:03.950Z,1009.10
2019-01-25T09:26:03.960Z,1009.12
2019-01-25T09:27:03.927Z,1009.09
2019-01-25T09:28:03.921Z,1009.06
2019-01-25T09:29:03.903Z,1009.10
2019-01-25T09:30:03.893Z,1009.10
2019-01-25T09:31:03.881Z,1009.23
2019-01-25T09:32:03.881Z,1009.28
2019-01-25T09:33:03.857Z,1009.33
2019-01-25T09:34:03.863Z,1009.43
2019-01-25T09:35:03.842Z,1009.35
2019-01-25T09:36:03.830Z,1009.36
2019-01-25T09:37:03.819Z,1009.41
2019-01-25T09:38:03.810Z,1009.40
2019-01-25T09:39:03.802Z,1009.35
2019-01-25T09:40:03.787Z,1009.43
2019-01-25T09:41:03.781Z,1009.36
2019-01-25T09:42:03.763Z,1009.31
2019-01-25T09:43:03.760Z,1009.32
2019-01-25T09:44:03.748Z,1009.25
2019-01-25T09:45:03.735Z,1009.11
2019-01-25T09:46:03.718Z,1009.06
2019-01-25T09:47:03.712Z,1009.08
2019-01-25T09:48:03.704Z,1009.05
2019-01-25T09:49:03.695Z,1009.11
2019-01-25T09:50:03.692Z,1009.24
2019-01-25T09:51:03.677Z,1009.21
2019-01-25T09:52:03.657Z,1009.03
2019-01-25T09:53:03.643Z,1009.19
2019-01-25T09:54:03.640Z,1009.25
2019-01-25T09:55:03.625Z,1009.29
2019-01-25T09:56:03.623Z,1009.25
2019-01-25T09:57:03.601Z,1009.16
2019-01-25T09:58:03.591Z,1008.92
2019-01-25T09:59:03.583Z,1008.97
2019-01-25T10:00:03.574Z,1008.98
2019-01-25T10:01:03.561Z,1009.01
2019-01-25T10:02:03.559Z,1009.00
2019-01-25T10:03:03.540Z,1009.03
2019-01-25T10:04:03.529Z,1009.01
2019-01-25T10:05:03.519Z,1009.05
2019-01-25T10:06:03.513Z,1009.01
2019-01-25T10:07:03.509Z,1008.99
2019-01-25T10:08:03.491Z,1009.04
2019-01-25T10:09:03.476Z,1009.07
2019-01-25T10:10:03.465Z,1009.03
2019-01-25T10:11:03.453Z,1008.99
2019-01-25T10:12:03.447Z,1009.05
2019-01-25T10:13:03.442Z,1008.98
2019-01-25T10:14:03.423Z,1009.04
2019-01-25T10:15:03.411Z,1009.02
2019-01-25T10:16:03.405Z,1009.06
2019-01-25T10:17:03.387Z,1009.03
2019-01-25T10:18:03.375Z,1008.99
2019-01-25T10:19:03.380Z,1008.98
2019-01-25T10:20:03.364Z,1008.96
2019-01-25T10:21:03.354Z,1008.91
2019-01-25T10:22:03.344Z,1008.96
2019-01-25T10:23:03.338Z,1008.92
2019-01-25T10:24:03.313Z,1008.92
2019-01-25T10:25:03.310Z,1008.94
2019-01-25T10:26:03.295Z,1008.96
2019-01-25T10:27:03.300Z,1008.95
2019-01-25T10:28:03.293Z,1008.94
2019-01-25T10:29:03.269Z,1008.98
2019-01-25T10:30:03.259Z,1008.91
2019-01-25T10:31:03.250Z,1008.85
2019-01-25T10:32:03.231Z,1008.78
2019-01-25T10:33:03.220Z,1008.79
2019-01-25T10:34:03.210Z,1008.78
2019-01-25T10:35:03.194Z,1008.72
2019-01-25T10:36:03.199Z,1008.66
2019-01-25T10:37:03.181Z,1008.64
2019-01-25T10:38:04.733Z,1008.61
2019-01-25T10:39:03.153Z,1008.58
2019-01-25T10:40:03.144Z,1008.55
2019-01-25T10:41:03.134Z,1008.59
2019-01-25T10:42:03.126Z,1008.63
2019-01-25T10:43:03.139Z,1008.64
2019-01-25T10:44:03.102Z,1008.64
2019-01-25T10:45:04.689Z,1008.64
2019-01-25T10:46:03.083Z,1008.71
2019-01-25T10:47:03.085Z,1008.72
2019-01-25T10:48:03.067Z,1008.72
2019-01-25T10:49:03.047Z,1008.70
2019-01-25T10:50:03.038Z,1008.70
2019-01-25T10:51:03.026Z,1008.73
2019-01-25T10:52:03.016Z,1008.72
2019-01-25T10:53:03.005Z,1008.75
2019-01-25T10:54:03.008Z,1008.74
2019-01-25T10:55:02.990Z,1008.73
2019-01-25T10:56:02.969Z,1008.72
2019-01-25T10:57:02.971Z,1008.70
2019-01-25T10:58:02.948Z,1008.70
2019-01-25T10:59:02.946Z,1008.71
2019-01-25T11:00:02.926Z,1008.71
2019-01-25T11:01:02.918Z,1008.67
2019-01-25T11:02:02.905Z,1008.63
2019-01-25T11:03:02.896Z,1008.65
2019-01-25T11:04:02.897Z,1008.61
2019-01-25T11:05:02.895Z,1008.62
2019-01-25T11:06:02.861Z,1008.63
2019-01-25T11:07:03.398Z,1008.62
2019-01-25T11:08:02.841Z,1008.59
2019-01-25T11:09:02.831Z,1008.59
2019-01-25T11:10:02.829Z,1008.65
2019-01-25T11:11:02.805Z,1008.65
2019-01-25T11:12:02.800Z,1008.65
2019-01-25T11:13:02.786Z,1008.61
2019-01-25T11:14:02.785Z,1008.62
2019-01-25T11:15:02.771Z,1008.60
2019-01-25T11:16:02.762Z,1008.64
2019-01-25T11:17:02.744Z,1008.64
2019-01-25T11:18:02.750Z,1008.63
2019-01-25T11:19:02.726Z,1008.63
2019-01-25T11:20:02.727Z,1008.55
2019-01-25T11:21:02.707Z,1008.57
2019-01-25T11:22:02.704Z,1008.53
2019-01-25T11:23:02.687Z,1008.52
2019-01-25T11:24:02.674Z,1008.58
2019-01-25T11:25:02.663Z,1008.58
2019-01-25T11:26:02.653Z,1008.49
2019-01-25T11:27:02.651Z,1008.52
2019-01-25T11:28:02.643Z,1008.59
2019-01-25T11:29:02.638Z,1008.58
2019-01-25T11:30:02.609Z,1008.59
2019-01-25T11:31:02.608Z,1008.57
2019-01-25T11:32:02.590Z,1008.60
2019-01-25T11:33:02.587Z,1008.60
2019-01-25T11:34:02.562Z,1008.59
2019-01-25T11:35:02.559Z,1008.56
2019-01-25T11:36:02.544Z,1008.56
2019-01-25T11:37:02.562Z,1008.59
2019-01-25T11:38:02.526Z,1008.58
2019-01-25T11:39:02.518Z,1008.60
2019-01-25T11:40:02.502Z,1008.62
2019-01-25T11:41:02.497Z,1008.61
2019-01-25T11:42:02.494Z,1008.60
2019-01-25T11:43:08.440Z,1008.58
2019-01-25T11:44:03.461Z,1008.56
2019-01-25T11:45:02.474Z,1008.60
2019-01-25T11:46:02.440Z,1008.67
2019-01-25T11:47:02.436Z,1008.67
2019-01-25T11:48:02.416Z,1008.69
2019-01-25T11:49:02.406Z,1008.64
2019-01-25T11:50:02.398Z,1008.61
2019-01-25T11:51:02.384Z,1008.58
2019-01-25T11:52:02.379Z,1008.56
2019-01-25T11:53:02.373Z,1008.61
2019-01-25T11:54:02.354Z,1008.60
2019-01-25T11:55:02.346Z,1008.60
2019-01-25T11:56:02.334Z,1008.57
2019-01-25T11:57:02.321Z,1008.60
2019-01-25T11:58:02.315Z,1008.69
2019-01-25T11:59:02.301Z,1008.63
2019-01-25T12:00:02.322Z,1008.68
2019-01-25T12:01:02.282Z,1008.63
2019-01-25T12:02:02.282Z,1008.59
2019-01-25T12:03:02.261Z,1008.56
2019-01-25T12:04:02.248Z,1008.63
2019-01-25T12:05:02.237Z,1008.54